sensor_id;sensor_type;location;lat;lon;timestamp;P1;durP1;ratioP1;P2;durP2;ratioP2
7017;SDS011;3549;42.162;24.726;2022-07-03T00:01:40;13.77;;;11.50;;
7017;SDS011;3549;42.162;24.726;2022-07-03T00:04:05;15.57;;;10.93;;
7017;SDS011;3549;42.162;24.726;2022-07-03T00:06:31;14.30;;;11.03;;
7017;SDS011;3549;42.162;24.726;2022-07-03T00:08:58;12.93;;;11.17;;
7017;SDS011;3549;42.162;24.726;2022-07-03T00:11:24;15.60;;;11.23;;
7017;SDS011;3549;42.162;24.726;2022-07-03T00:13:50;13.40;;;10.70;;
7017;SDS011;3549;42.162;24.726;2022-07-03T00:16:15;12.57;;;11.13;;
7017;SDS011;3549;42.162;24.726;2022-07-03T00:18:42;16.20;;;11.03;;
7017;SDS011;3549;42.162;24.726;2022-07-03T00:21:08;11.80;;;10.60;;
7017;SDS011;3549;42.162;24.726;2022-07-03T00:23:55;15.03;;;10.57;;
7017;SDS011;3549;42.162;24.726;2022-07-03T00:26:26;13.47;;;10.50;;
7017;SDS011;3549;42.162;24.726;2022-07-03T00:28:56;12.40;;;10.90;;
7017;SDS011;3549;42.162;24.726;2022-07-03T00:31:24;13.10;;;11.30;;
7017;SDS011;3549;42.162;24.726;2022-07-03T00:33:52;13.10;;;10.47;;
7017;SDS011;3549;42.162;24.726;2022-07-03T00:36:20;14.00;;;10.80;;
7017;SDS011;3549;42.162;24.726;2022-07-03T00:38:46;14.33;;;10.97;;
7017;SDS011;3549;42.162;24.726;2022-07-03T00:41:23;29.43;;;23.93;;
7017;SDS011;3549;42.162;24.726;2022-07-03T00:43:51;23.27;;;20.30;;
7017;SDS011;3549;42.162;24.726;2022-07-03T00:46:16;15.53;;;11.57;;
7017;SDS011;3549;42.162;24.726;2022-07-03T00:48:45;15.40;;;11.37;;
7017;SDS011;3549;42.162;24.726;2022-07-03T00:51:14;13.50;;;10.37;;
7017;SDS011;3549;42.162;24.726;2022-07-03T00:53:40;12.97;;;10.60;;
7017;SDS011;3549;42.162;24.726;2022-07-03T00:56:07;13.67;;;10.43;;
7017;SDS011;3549;42.162;24.726;2022-07-03T00:58:36;12.23;;;10.37;;
7017;SDS011;3549;42.162;24.726;2022-07-03T01:01:03;11.10;;;9.83;;
7017;SDS011;3549;42.162;24.726;2022-07-03T01:03:29;12.17;;;10.37;;
7017;SDS011;3549;42.162;24.726;2022-07-03T01:06:01;12.17;;;10.50;;
7017;SDS011;3549;42.162;24.726;2022-07-03T01:08:36;12.20;;;10.70;;
7017;SDS011;3549;42.162;24.726;2022-07-03T01:11:16;11.17;;;10.00;;
7017;SDS011;3549;42.162;24.726;2022-07-03T01:16:47;14.33;;;10.50;;
7017;SDS011;3549;42.162;24.726;2022-07-03T01:22:48;15.77;;;11.77;;
7017;SDS011;3549;42.162;24.726;2022-07-03T01:25:26;14.90;;;11.77;;
7017;SDS011;3549;42.162;24.726;2022-07-03T01:28:12;15.50;;;11.50;;
7017;SDS011;3549;42.162;24.726;2022-07-03T01:30:47;14.63;;;11.80;;
7017;SDS011;3549;42.162;24.726;2022-07-03T01:33:15;14.40;;;12.20;;
7017;SDS011;3549;42.162;24.726;2022-07-03T01:35:47;15.03;;;11.47;;
7017;SDS011;3549;42.162;24.726;2022-07-03T01:38:27;15.93;;;11.93;;
7017;SDS011;3549;42.162;24.726;2022-07-03T01:40:54;15.83;;;11.87;;
7017;SDS011;3549;42.162;24.726;2022-07-03T01:43:22;17.03;;;12.10;;
7017;SDS011;3549;42.162;24.726;2022-07-03T01:45:52;15.47;;;12.20;;
7017;SDS011;3549;42.162;24.726;2022-07-03T01:48:20;16.90;;;12.90;;
7017;SDS011;3549;42.162;24.726;2022-07-03T01:50:47;16.93;;;12.60;;
7017;SDS011;3549;42.162;24.726;2022-07-03T01:53:14;16.17;;;12.53;;
7017;SDS011;3549;42.162;24.726;2022-07-03T01:55:41;14.43;;;11.73;;
7017;SDS011;3549;42.162;24.726;2022-07-03T01:58:08;15.27;;;11.93;;
7017;SDS011;3549;42.162;24.726;2022-07-03T02:00:40;14.03;;;11.77;;
7017;SDS011;3549;42.162;24.726;2022-07-03T02:03:28;15.03;;;11.70;;
7017;SDS011;3549;42.162;24.726;2022-07-03T02:08:36;15.13;;;11.80;;
7017;SDS011;3549;42.162;24.726;2022-07-03T02:16:29;14.80;;;11.90;;
7017;SDS011;3549;42.162;24.726;2022-07-03T02:19:08;14.10;;;11.70;;
7017;SDS011;3549;42.162;24.726;2022-07-03T02:21:38;14.60;;;11.90;;
7017;SDS011;3549;42.162;24.726;2022-07-03T02:26:42;14.87;;;12.07;;
7017;SDS011;3549;42.162;24.726;2022-07-03T02:29:15;16.90;;;12.57;;
7017;SDS011;3549;42.162;24.726;2022-07-03T02:31:50;17.23;;;12.87;;
7017;SDS011;3549;42.162;24.726;2022-07-03T02:34:22;18.70;;;12.63;;
7017;SDS011;3549;42.162;24.726;2022-07-03T02:36:49;15.83;;;12.40;;
7017;SDS011;3549;42.162;24.726;2022-07-03T02:39:29;18.33;;;13.70;;
7017;SDS011;3549;42.162;24.726;2022-07-03T02:42:02;18.30;;;13.67;;
7017;SDS011;3549;42.162;24.726;2022-07-03T02:55:42;19.57;;;13.37;;
7017;SDS011;3549;42.162;24.726;2022-07-03T03:00:58;17.87;;;13.83;;
7017;SDS011;3549;42.162;24.726;2022-07-03T03:03:31;19.80;;;14.10;;
7017;SDS011;3549;42.162;24.726;2022-07-03T03:06:02;20.90;;;13.47;;
7017;SDS011;3549;42.162;24.726;2022-07-03T03:08:42;16.47;;;13.77;;
7017;SDS011;3549;42.162;24.726;2022-07-03T03:14:13;18.53;;;14.10;;
7017;SDS011;3549;42.162;24.726;2022-07-03T03:16:46;17.87;;;14.53;;
7017;SDS011;3549;42.162;24.726;2022-07-03T03:19:13;19.13;;;14.57;;
7017;SDS011;3549;42.162;24.726;2022-07-03T03:21:50;20.13;;;14.87;;
7017;SDS011;3549;42.162;24.726;2022-07-03T03:24:22;18.17;;;14.63;;
7017;SDS011;3549;42.162;24.726;2022-07-03T03:26:49;18.63;;;15.27;;
7017;SDS011;3549;42.162;24.726;2022-07-03T03:29:16;20.20;;;15.53;;
7017;SDS011;3549;42.162;24.726;2022-07-03T03:31:42;17.93;;;15.07;;
7017;SDS011;3549;42.162;24.726;2022-07-03T03:34:07;19.03;;;15.03;;
7017;SDS011;3549;42.162;24.726;2022-07-03T03:36:35;20.40;;;14.43;;
7017;SDS011;3549;42.162;24.726;2022-07-03T03:39:01;21.43;;;13.90;;
7017;SDS011;3549;42.162;24.726;2022-07-03T03:41:26;16.57;;;13.37;;
7017;SDS011;3549;42.162;24.726;2022-07-03T03:43:52;20.77;;;14.10;;
7017;SDS011;3549;42.162;24.726;2022-07-03T03:46:17;20.17;;;14.10;;
7017;SDS011;3549;42.162;24.726;2022-07-03T03:48:43;20.07;;;13.87;;
7017;SDS011;3549;42.162;24.726;2022-07-03T03:51:08;18.70;;;13.73;;
7017;SDS011;3549;42.162;24.726;2022-07-03T03:53:34;17.70;;;13.90;;
7017;SDS011;3549;42.162;24.726;2022-07-03T03:56:00;17.53;;;13.53;;
7017;SDS011;3549;42.162;24.726;2022-07-03T03:58:28;18.80;;;13.60;;
7017;SDS011;3549;42.162;24.726;2022-07-03T04:00:58;16.43;;;13.57;;
7017;SDS011;3549;42.162;24.726;2022-07-03T04:03:25;20.73;;;13.63;;
7017;SDS011;3549;42.162;24.726;2022-07-03T04:05:52;19.07;;;13.93;;
7017;SDS011;3549;42.162;24.726;2022-07-03T04:08:18;18.57;;;14.50;;
7017;SDS011;3549;42.162;24.726;2022-07-03T04:10:44;20.50;;;13.67;;
7017;SDS011;3549;42.162;24.726;2022-07-03T04:13:10;18.47;;;13.80;;
7017;SDS011;3549;42.162;24.726;2022-07-03T04:15:36;16.53;;;13.27;;
7017;SDS011;3549;42.162;24.726;2022-07-03T04:18:01;21.97;;;14.13;;
7017;SDS011;3549;42.162;24.726;2022-07-03T04:20:27;17.27;;;14.27;;
7017;SDS011;3549;42.162;24.726;2022-07-03T04:22:52;24.13;;;14.87;;
7017;SDS011;3549;42.162;24.726;2022-07-03T04:25:18;18.03;;;14.33;;
7017;SDS011;3549;42.162;24.726;2022-07-03T04:27:43;21.40;;;14.73;;
7017;SDS011;3549;42.162;24.726;2022-07-03T04:30:09;16.73;;;13.77;;
7017;SDS011;3549;42.162;24.726;2022-07-03T04:32:37;18.17;;;14.43;;
7017;SDS011;3549;42.162;24.726;2022-07-03T04:35:03;21.50;;;14.30;;
7017;SDS011;3549;42.162;24.726;2022-07-03T04:37:29;19.27;;;14.53;;
7017;SDS011;3549;42.162;24.726;2022-07-03T04:39:55;17.53;;;14.70;;
7017;SDS011;3549;42.162;24.726;2022-07-03T04:42:20;18.23;;;15.17;;
7017;SDS011;3549;42.162;24.726;2022-07-03T04:44:45;19.40;;;14.60;;
7017;SDS011;3549;42.162;24.726;2022-07-03T04:47:11;21.20;;;14.20;;
7017;SDS011;3549;42.162;24.726;2022-07-03T04:49:38;16.07;;;13.93;;
7017;SDS011;3549;42.162;24.726;2022-07-03T04:52:03;19.20;;;13.90;;
7017;SDS011;3549;42.162;24.726;2022-07-03T04:54:29;17.40;;;13.87;;
7017;SDS011;3549;42.162;24.726;2022-07-03T04:56:54;18.70;;;13.13;;
7017;SDS011;3549;42.162;24.726;2022-07-03T04:59:20;16.27;;;14.37;;
7017;SDS011;3549;42.162;24.726;2022-07-03T05:01:48;17.07;;;13.17;;
7017;SDS011;3549;42.162;24.726;2022-07-03T05:04:14;16.83;;;13.53;;
7017;SDS011;3549;42.162;24.726;2022-07-03T05:06:41;18.30;;;13.63;;
7017;SDS011;3549;42.162;24.726;2022-07-03T05:09:06;17.10;;;13.03;;
7017;SDS011;3549;42.162;24.726;2022-07-03T05:11:32;17.13;;;13.17;;
7017;SDS011;3549;42.162;24.726;2022-07-03T05:13:57;17.23;;;13.27;;
7017;SDS011;3549;42.162;24.726;2022-07-03T05:16:25;17.80;;;13.33;;
7017;SDS011;3549;42.162;24.726;2022-07-03T05:18:50;17.33;;;13.13;;
7017;SDS011;3549;42.162;24.726;2022-07-03T05:21:16;16.37;;;12.70;;
7017;SDS011;3549;42.162;24.726;2022-07-03T05:23:41;13.37;;;11.73;;
7017;SDS011;3549;42.162;24.726;2022-07-03T05:26:06;13.67;;;11.63;;
7017;SDS011;3549;42.162;24.726;2022-07-03T05:28:32;14.17;;;12.03;;
7017;SDS011;3549;42.162;24.726;2022-07-03T05:30:57;14.97;;;11.07;;
7017;SDS011;3549;42.162;24.726;2022-07-03T05:33:23;14.60;;;11.73;;
7017;SDS011;3549;42.162;24.726;2022-07-03T05:35:48;12.77;;;11.37;;
7017;SDS011;3549;42.162;24.726;2022-07-03T05:38:14;13.03;;;11.17;;
7017;SDS011;3549;42.162;24.726;2022-07-03T05:41:00;13.00;;;11.23;;
7017;SDS011;3549;42.162;24.726;2022-07-03T05:43:25;16.20;;;11.87;;
7017;SDS011;3549;42.162;24.726;2022-07-03T05:45:51;12.80;;;11.23;;
7017;SDS011;3549;42.162;24.726;2022-07-03T05:48:16;13.73;;;11.53;;
7017;SDS011;3549;42.162;24.726;2022-07-03T05:50:41;13.33;;;11.70;;
7017;SDS011;3549;42.162;24.726;2022-07-03T05:53:07;16.30;;;12.63;;
7017;SDS011;3549;42.162;24.726;2022-07-03T05:55:32;13.30;;;11.90;;
7017;SDS011;3549;42.162;24.726;2022-07-03T05:57:58;13.40;;;11.70;;
7017;SDS011;3549;42.162;24.726;2022-07-03T06:00:23;14.10;;;11.53;;
7017;SDS011;3549;42.162;24.726;2022-07-03T06:02:49;12.60;;;11.33;;
7017;SDS011;3549;42.162;24.726;2022-07-03T06:05:14;15.20;;;11.73;;
7017;SDS011;3549;42.162;24.726;2022-07-03T06:07:39;14.37;;;11.40;;
7017;SDS011;3549;42.162;24.726;2022-07-03T06:10:05;12.27;;;10.80;;
7017;SDS011;3549;42.162;24.726;2022-07-03T06:12:31;14.37;;;11.10;;
7017;SDS011;3549;42.162;24.726;2022-07-03T06:14:56;12.73;;;10.87;;
7017;SDS011;3549;42.162;24.726;2022-07-03T06:17:22;13.90;;;11.77;;
7017;SDS011;3549;42.162;24.726;2022-07-03T06:19:47;13.80;;;11.30;;
7017;SDS011;3549;42.162;24.726;2022-07-03T06:22:12;14.20;;;12.23;;
7017;SDS011;3549;42.162;24.726;2022-07-03T06:24:38;15.17;;;11.60;;
7017;SDS011;3549;42.162;24.726;2022-07-03T06:27:03;12.60;;;11.30;;
7017;SDS011;3549;42.162;24.726;2022-07-03T06:29:29;13.03;;;11.20;;
7017;SDS011;3549;42.162;24.726;2022-07-03T06:31:54;12.83;;;10.93;;
7017;SDS011;3549;42.162;24.726;2022-07-03T06:34:20;13.60;;;12.10;;
7017;SDS011;3549;42.162;24.726;2022-07-03T06:36:45;14.90;;;12.00;;
7017;SDS011;3549;42.162;24.726;2022-07-03T06:39:11;15.25;;;11.93;;
7017;SDS011;3549;42.162;24.726;2022-07-03T06:41:36;12.70;;;11.23;;
7017;SDS011;3549;42.162;24.726;2022-07-03T06:44:01;13.43;;;11.60;;
7017;SDS011;3549;42.162;24.726;2022-07-03T06:46:27;14.57;;;11.63;;
7017;SDS011;3549;42.162;24.726;2022-07-03T06:48:52;16.65;;;12.43;;
7017;SDS011;3549;42.162;24.726;2022-07-03T06:51:18;19.55;;;13.20;;
7017;SDS011;3549;42.162;24.726;2022-07-03T06:53:43;16.48;;;13.90;;
7017;SDS011;3549;42.162;24.726;2022-07-03T06:56:09;16.38;;;12.38;;
7017;SDS011;3549;42.162;24.726;2022-07-03T06:58:34;13.13;;;11.32;;
7017;SDS011;3549;42.162;24.726;2022-07-03T07:00:59;14.20;;;11.75;;
7017;SDS011;3549;42.162;24.726;2022-07-03T07:03:25;12.95;;;11.23;;
7017;SDS011;3549;42.162;24.726;2022-07-03T07:05:50;12.80;;;11.50;;
7017;SDS011;3549;42.162;24.726;2022-07-03T07:08:15;12.98;;;11.38;;
7017;SDS011;3549;42.162;24.726;2022-07-03T07:10:41;12.63;;;11.27;;
7017;SDS011;3549;42.162;24.726;2022-07-03T07:13:06;12.18;;;10.68;;
7017;SDS011;3549;42.162;24.726;2022-07-03T07:15:33;11.98;;;10.70;;
7017;SDS011;3549;42.162;24.726;2022-07-03T07:17:58;11.35;;;10.25;;
7017;SDS011;3549;42.162;24.726;2022-07-03T07:20:24;14.77;;;11.27;;
7017;SDS011;3549;42.162;24.726;2022-07-03T07:22:50;13.10;;;11.35;;
7017;SDS011;3549;42.162;24.726;2022-07-03T07:25:15;18.08;;;11.20;;
7017;SDS011;3549;42.162;24.726;2022-07-03T07:27:51;12.35;;;10.73;;
7017;SDS011;3549;42.162;24.726;2022-07-03T07:30:16;12.68;;;11.30;;
7017;SDS011;3549;42.162;24.726;2022-07-03T07:32:42;13.52;;;11.43;;
7017;SDS011;3549;42.162;24.726;2022-07-03T07:35:07;14.07;;;11.68;;
7017;SDS011;3549;42.162;24.726;2022-07-03T07:37:33;13.23;;;11.82;;
7017;SDS011;3549;42.162;24.726;2022-07-03T07:39:58;14.85;;;11.27;;
7017;SDS011;3549;42.162;24.726;2022-07-03T07:42:24;15.95;;;11.43;;
7017;SDS011;3549;42.162;24.726;2022-07-03T07:44:50;14.32;;;12.77;;
7017;SDS011;3549;42.162;24.726;2022-07-03T07:47:18;13.15;;;11.05;;
7017;SDS011;3549;42.162;24.726;2022-07-03T07:49:44;12.02;;;10.80;;
7017;SDS011;3549;42.162;24.726;2022-07-03T07:52:09;13.25;;;11.23;;
7017;SDS011;3549;42.162;24.726;2022-07-03T07:54:35;13.23;;;10.27;;
7017;SDS011;3549;42.162;24.726;2022-07-03T07:57:01;13.55;;;9.35;;
7017;SDS011;3549;42.162;24.726;2022-07-03T07:59:26;10.77;;;9.68;;
7017;SDS011;3549;42.162;24.726;2022-07-03T08:01:51;10.52;;;9.48;;
7017;SDS011;3549;42.162;24.726;2022-07-03T08:04:35;19.35;;;11.23;;
7017;SDS011;3549;42.162;24.726;2022-07-03T08:07:19;11.65;;;9.95;;
7017;SDS011;3549;42.162;24.726;2022-07-03T08:09:45;11.07;;;9.80;;
7017;SDS011;3549;42.162;24.726;2022-07-03T08:12:10;13.13;;;9.68;;
7017;SDS011;3549;42.162;24.726;2022-07-03T08:14:36;11.88;;;9.25;;
7017;SDS011;3549;42.162;24.726;2022-07-03T08:17:03;11.65;;;9.52;;
7017;SDS011;3549;42.162;24.726;2022-07-03T08:19:28;11.55;;;9.02;;
7017;SDS011;3549;42.162;24.726;2022-07-03T08:22:01;11.82;;;9.98;;
7017;SDS011;3549;42.162;24.726;2022-07-03T08:25:00;11.48;;;10.05;;
7017;SDS011;3549;42.162;24.726;2022-07-03T08:38:37;30.63;;;15.63;;
7017;SDS011;3549;42.162;24.726;2022-07-03T08:41:25;10.45;;;9.07;;
7017;SDS011;3549;42.162;24.726;2022-07-03T08:47:23;12.32;;;9.35;;
7017;SDS011;3549;42.162;24.726;2022-07-03T08:49:48;9.63;;;8.63;;
7017;SDS011;3549;42.162;24.726;2022-07-03T08:52:14;11.23;;;8.70;;
7017;SDS011;3549;42.162;24.726;2022-07-03T08:54:40;12.55;;;8.85;;
7017;SDS011;3549;42.162;24.726;2022-07-03T08:57:13;13.90;;;10.00;;
7017;SDS011;3549;42.162;24.726;2022-07-03T08:59:49;11.38;;;9.32;;
7017;SDS011;3549;42.162;24.726;2022-07-03T09:02:22;11.40;;;9.40;;
7017;SDS011;3549;42.162;24.726;2022-07-03T09:04:48;22.13;;;12.27;;
7017;SDS011;3549;42.162;24.726;2022-07-03T09:07:17;9.90;;;8.25;;
7017;SDS011;3549;42.162;24.726;2022-07-03T09:09:44;8.77;;;7.88;;
7017;SDS011;3549;42.162;24.726;2022-07-03T09:12:10;13.88;;;8.20;;
7017;SDS011;3549;42.162;24.726;2022-07-03T09:14:37;8.85;;;7.95;;
7017;SDS011;3549;42.162;24.726;2022-07-03T09:17:05;11.43;;;7.28;;
7017;SDS011;3549;42.162;24.726;2022-07-03T09:22:20;9.15;;;7.97;;
7017;SDS011;3549;42.162;24.726;2022-07-03T09:24:52;9.90;;;8.15;;
7017;SDS011;3549;42.162;24.726;2022-07-03T09:27:20;10.38;;;8.82;;
7017;SDS011;3549;42.162;24.726;2022-07-03T09:29:51;9.60;;;7.72;;
7017;SDS011;3549;42.162;24.726;2022-07-03T09:32:24;10.77;;;8.20;;
7017;SDS011;3549;42.162;24.726;2022-07-03T09:34:50;9.68;;;7.88;;
7017;SDS011;3549;42.162;24.726;2022-07-03T09:37:58;8.45;;;7.65;;
7017;SDS011;3549;42.162;24.726;2022-07-03T09:40:27;10.70;;;7.63;;
7017;SDS011;3549;42.162;24.726;2022-07-03T09:43:14;9.18;;;7.60;;
7017;SDS011;3549;42.162;24.726;2022-07-03T09:45:53;8.48;;;7.25;;
7017;SDS011;3549;42.162;24.726;2022-07-03T09:53:43;9.32;;;7.60;;
7017;SDS011;3549;42.162;24.726;2022-07-03T09:56:17;8.25;;;7.45;;
7017;SDS011;3549;42.162;24.726;2022-07-03T09:59:00;9.00;;;7.53;;
7017;SDS011;3549;42.162;24.726;2022-07-03T10:01:25;10.15;;;7.88;;
7017;SDS011;3549;42.162;24.726;2022-07-03T10:03:51;9.27;;;7.50;;
7017;SDS011;3549;42.162;24.726;2022-07-03T10:06:16;9.80;;;8.10;;
7017;SDS011;3549;42.162;24.726;2022-07-03T10:08:42;9.77;;;7.47;;
7017;SDS011;3549;42.162;24.726;2022-07-03T10:11:09;7.40;;;6.70;;
7017;SDS011;3549;42.162;24.726;2022-07-03T10:13:38;9.40;;;7.38;;
7017;SDS011;3549;42.162;24.726;2022-07-03T10:16:06;8.70;;;7.65;;
7017;SDS011;3549;42.162;24.726;2022-07-03T10:18:37;10.27;;;7.07;;
7017;SDS011;3549;42.162;24.726;2022-07-03T10:21:09;8.73;;;7.40;;
7017;SDS011;3549;42.162;24.726;2022-07-03T10:23:37;8.52;;;7.47;;
7017;SDS011;3549;42.162;24.726;2022-07-03T10:26:03;7.93;;;6.70;;
7017;SDS011;3549;42.162;24.726;2022-07-03T10:28:32;10.15;;;7.10;;
7017;SDS011;3549;42.162;24.726;2022-07-03T10:30:58;9.80;;;7.50;;
7017;SDS011;3549;42.162;24.726;2022-07-03T10:33:27;9.98;;;7.60;;
7017;SDS011;3549;42.162;24.726;2022-07-03T10:35:57;8.00;;;7.20;;
7017;SDS011;3549;42.162;24.726;2022-07-03T10:40:57;8.70;;;7.57;;
7017;SDS011;3549;42.162;24.726;2022-07-03T10:43:55;8.77;;;7.38;;
7017;SDS011;3549;42.162;24.726;2022-07-03T10:46:40;8.35;;;7.55;;
7017;SDS011;3549;42.162;24.726;2022-07-03T10:49:11;10.75;;;7.38;;
7017;SDS011;3549;42.162;24.726;2022-07-03T10:51:56;9.18;;;7.53;;
7017;SDS011;3549;42.162;24.726;2022-07-03T10:54:33;9.60;;;7.22;;
7017;SDS011;3549;42.162;24.726;2022-07-03T10:57:07;8.77;;;7.88;;
7017;SDS011;3549;42.162;24.726;2022-07-03T11:07:29;9.00;;;7.72;;
7017;SDS011;3549;42.162;24.726;2022-07-03T11:18:17;11.18;;;7.43;;
7017;SDS011;3549;42.162;24.726;2022-07-03T11:33:44;9.15;;;8.25;;
7017;SDS011;3549;42.162;24.726;2022-07-03T11:38:40;11.05;;;8.65;;
7017;SDS011;3549;42.162;24.726;2022-07-03T11:41:07;12.00;;;8.48;;
7017;SDS011;3549;42.162;24.726;2022-07-03T11:43:34;11.73;;;8.60;;
7017;SDS011;3549;42.162;24.726;2022-07-03T11:45:59;11.50;;;8.13;;
7017;SDS011;3549;42.162;24.726;2022-07-03T11:48:29;10.50;;;8.32;;
7017;SDS011;3549;42.162;24.726;2022-07-03T11:51:02;9.48;;;8.00;;
7017;SDS011;3549;42.162;24.726;2022-07-03T11:53:32;8.90;;;8.02;;
7017;SDS011;3549;42.162;24.726;2022-07-03T11:56:02;11.02;;;8.35;;
7017;SDS011;3549;42.162;24.726;2022-07-03T12:01:10;9.35;;;8.45;;
7017;SDS011;3549;42.162;24.726;2022-07-03T12:03:52;9.32;;;8.10;;
7017;SDS011;3549;42.162;24.726;2022-07-03T12:06:18;9.23;;;7.85;;
7017;SDS011;3549;42.162;24.726;2022-07-03T12:08:47;11.65;;;8.40;;
7017;SDS011;3549;42.162;24.726;2022-07-03T12:11:13;10.07;;;8.10;;
7017;SDS011;3549;42.162;24.726;2022-07-03T12:13:41;11.23;;;8.13;;
7017;SDS011;3549;42.162;24.726;2022-07-03T12:18:40;8.80;;;8.00;;
7017;SDS011;3549;42.162;24.726;2022-07-03T12:21:07;10.98;;;8.40;;
7017;SDS011;3549;42.162;24.726;2022-07-03T12:23:39;10.45;;;8.70;;
7017;SDS011;3549;42.162;24.726;2022-07-03T12:26:26;10.13;;;8.30;;
7017;SDS011;3549;42.162;24.726;2022-07-03T12:29:12;9.30;;;8.40;;
7017;SDS011;3549;42.162;24.726;2022-07-03T12:31:43;10.95;;;8.10;;
7017;SDS011;3549;42.162;24.726;2022-07-03T12:34:11;10.50;;;7.75;;
7017;SDS011;3549;42.162;24.726;2022-07-03T12:36:37;9.05;;;8.18;;
7017;SDS011;3549;42.162;24.726;2022-07-03T12:39:03;10.52;;;8.32;;
7017;SDS011;3549;42.162;24.726;2022-07-03T12:41:29;8.95;;;8.05;;
7017;SDS011;3549;42.162;24.726;2022-07-03T12:43:55;10.10;;;8.30;;
7017;SDS011;3549;42.162;24.726;2022-07-03T12:48:59;8.80;;;7.90;;
7017;SDS011;3549;42.162;24.726;2022-07-03T12:54:05;8.45;;;7.45;;
7017;SDS011;3549;42.162;24.726;2022-07-03T12:56:31;8.50;;;7.80;;
7017;SDS011;3549;42.162;24.726;2022-07-03T12:58:57;9.00;;;8.20;;
7017;SDS011;3549;42.162;24.726;2022-07-03T13:01:41;8.25;;;7.55;;
7017;SDS011;3549;42.162;24.726;2022-07-03T13:04:07;9.80;;;7.20;;
7017;SDS011;3549;42.162;24.726;2022-07-03T13:06:33;9.45;;;7.65;;
7017;SDS011;3549;42.162;24.726;2022-07-03T13:09:00;8.38;;;7.40;;
7017;SDS011;3549;42.162;24.726;2022-07-03T13:11:37;9.18;;;8.00;;
7017;SDS011;3549;42.162;24.726;2022-07-03T13:16:34;8.63;;;7.82;;
7017;SDS011;3549;42.162;24.726;2022-07-03T13:19:14;8.70;;;7.80;;
7017;SDS011;3549;42.162;24.726;2022-07-03T13:21:46;8.27;;;7.47;;
7017;SDS011;3549;42.162;24.726;2022-07-03T13:24:13;10.00;;;7.35;;
7017;SDS011;3549;42.162;24.726;2022-07-03T13:26:39;7.97;;;7.28;;
7017;SDS011;3549;42.162;24.726;2022-07-03T13:29:05;9.73;;;7.40;;
7017;SDS011;3549;42.162;24.726;2022-07-03T13:31:32;7.78;;;7.07;;
7017;SDS011;3549;42.162;24.726;2022-07-03T13:33:58;8.93;;;7.53;;
7017;SDS011;3549;42.162;24.726;2022-07-03T13:36:27;9.60;;;7.35;;
7017;SDS011;3549;42.162;24.726;2022-07-03T13:38:54;9.73;;;7.40;;
7017;SDS011;3549;42.162;24.726;2022-07-03T13:41:22;8.55;;;7.57;;
7017;SDS011;3549;42.162;24.726;2022-07-03T13:43:49;7.40;;;6.78;;
7017;SDS011;3549;42.162;24.726;2022-07-03T13:46:16;9.63;;;7.40;;
7017;SDS011;3549;42.162;24.726;2022-07-03T13:48:42;8.05;;;6.90;;
7017;SDS011;3549;42.162;24.726;2022-07-03T13:51:12;11.48;;;7.45;;
7017;SDS011;3549;42.162;24.726;2022-07-03T13:53:38;11.23;;;7.30;;
7017;SDS011;3549;42.162;24.726;2022-07-03T13:56:06;11.43;;;7.20;;
7017;SDS011;3549;42.162;24.726;2022-07-03T13:58:32;8.43;;;7.22;;
7017;SDS011;3549;42.162;24.726;2022-07-03T14:00:57;9.23;;;6.93;;
7017;SDS011;3549;42.162;24.726;2022-07-03T14:03:24;8.75;;;7.20;;
7017;SDS011;3549;42.162;24.726;2022-07-03T14:05:49;8.70;;;7.22;;
7017;SDS011;3549;42.162;24.726;2022-07-03T14:08:17;7.88;;;6.82;;
7017;SDS011;3549;42.162;24.726;2022-07-03T14:10:43;7.65;;;6.93;;
7017;SDS011;3549;42.162;24.726;2022-07-03T14:13:08;9.80;;;7.50;;
7017;SDS011;3549;42.162;24.726;2022-07-03T14:15:34;8.10;;;7.35;;
7017;SDS011;3549;42.162;24.726;2022-07-03T14:17:59;9.40;;;7.22;;
7017;SDS011;3549;42.162;24.726;2022-07-03T14:20:26;8.70;;;7.15;;
7017;SDS011;3549;42.162;24.726;2022-07-03T14:22:52;8.07;;;7.22;;
7017;SDS011;3549;42.162;24.726;2022-07-03T14:25:18;7.50;;;6.70;;
7017;SDS011;3549;42.162;24.726;2022-07-03T14:27:43;8.80;;;7.10;;
7017;SDS011;3549;42.162;24.726;2022-07-03T14:30:27;9.13;;;7.15;;
7017;SDS011;3549;42.162;24.726;2022-07-03T14:33:11;8.63;;;7.25;;
7017;SDS011;3549;42.162;24.726;2022-07-03T14:35:36;9.32;;;6.95;;
7017;SDS011;3549;42.162;24.726;2022-07-03T14:38:02;10.10;;;7.53;;
7017;SDS011;3549;42.162;24.726;2022-07-03T14:40:28;8.68;;;7.50;;
7017;SDS011;3549;42.162;24.726;2022-07-03T14:42:53;8.80;;;7.55;;
7017;SDS011;3549;42.162;24.726;2022-07-03T14:45:19;7.88;;;7.07;;
7017;SDS011;3549;42.162;24.726;2022-07-03T14:47:46;9.43;;;7.40;;
7017;SDS011;3549;42.162;24.726;2022-07-03T14:50:11;8.13;;;7.35;;
7017;SDS011;3549;42.162;24.726;2022-07-03T14:52:37;9.15;;;8.00;;
7017;SDS011;3549;42.162;24.726;2022-07-03T14:55:02;9.02;;;7.55;;
7017;SDS011;3549;42.162;24.726;2022-07-03T15:00:05;8.77;;;7.40;;
7017;SDS011;3549;42.162;24.726;2022-07-03T15:07:31;13.13;;;7.57;;
7017;SDS011;3549;42.162;24.726;2022-07-03T15:10:04;8.25;;;7.53;;
7017;SDS011;3549;42.162;24.726;2022-07-03T15:12:36;8.00;;;7.30;;
7017;SDS011;3549;42.162;24.726;2022-07-03T15:15:07;8.90;;;7.57;;
7017;SDS011;3549;42.162;24.726;2022-07-03T15:17:34;9.30;;;7.35;;
7017;SDS011;3549;42.162;24.726;2022-07-03T15:20:01;8.60;;;7.20;;
7017;SDS011;3549;42.162;24.726;2022-07-03T15:22:28;8.70;;;7.60;;
7017;SDS011;3549;42.162;24.726;2022-07-03T15:24:58;11.52;;;7.32;;
7017;SDS011;3549;42.162;24.726;2022-07-03T15:27:25;9.98;;;7.57;;
7017;SDS011;3549;42.162;24.726;2022-07-03T15:29:53;11.43;;;8.90;;
7017;SDS011;3549;42.162;24.726;2022-07-03T15:32:22;11.43;;;7.70;;
7017;SDS011;3549;42.162;24.726;2022-07-03T15:34:48;12.00;;;7.68;;
7017;SDS011;3549;42.162;24.726;2022-07-03T15:40:24;8.15;;;7.45;;
7017;SDS011;3549;42.162;24.726;2022-07-03T15:45:32;7.80;;;7.00;;
7017;SDS011;3549;42.162;24.726;2022-07-03T15:54:20;8.73;;;7.85;;
7017;SDS011;3549;42.162;24.726;2022-07-03T15:56:52;9.88;;;7.18;;
7017;SDS011;3549;42.162;24.726;2022-07-03T15:59:22;10.43;;;8.05;;
7017;SDS011;3549;42.162;24.726;2022-07-03T16:01:52;8.32;;;7.30;;
7017;SDS011;3549;42.162;24.726;2022-07-03T16:04:56;8.45;;;7.43;;
7017;SDS011;3549;42.162;24.726;2022-07-03T16:07:29;9.70;;;7.15;;
7017;SDS011;3549;42.162;24.726;2022-07-03T16:09:59;10.30;;;7.47;;
7017;SDS011;3549;42.162;24.726;2022-07-03T16:12:27;7.88;;;7.00;;
7017;SDS011;3549;42.162;24.726;2022-07-03T16:14:53;9.60;;;7.38;;
7017;SDS011;3549;42.162;24.726;2022-07-03T16:17:20;9.88;;;7.50;;
7017;SDS011;3549;42.162;24.726;2022-07-03T16:19:49;8.88;;;7.20;;
7017;SDS011;3549;42.162;24.726;2022-07-03T16:22:16;9.27;;;7.03;;
7017;SDS011;3549;42.162;24.726;2022-07-03T16:24:42;8.50;;;7.10;;
7017;SDS011;3549;42.162;24.726;2022-07-03T16:27:11;10.82;;;6.90;;
7017;SDS011;3549;42.162;24.726;2022-07-03T16:29:40;7.70;;;6.85;;
7017;SDS011;3549;42.162;24.726;2022-07-03T16:32:06;8.05;;;7.00;;
7017;SDS011;3549;42.162;24.726;2022-07-03T16:34:38;8.90;;;7.50;;
7017;SDS011;3549;42.162;24.726;2022-07-03T16:37:10;9.15;;;7.63;;
7017;SDS011;3549;42.162;24.726;2022-07-03T16:39:39;9.32;;;7.07;;
7017;SDS011;3549;42.162;24.726;2022-07-03T16:42:06;8.73;;;7.35;;
7017;SDS011;3549;42.162;24.726;2022-07-03T16:44:37;10.48;;;7.47;;
7017;SDS011;3549;42.162;24.726;2022-07-03T16:47:05;9.18;;;7.50;;
7017;SDS011;3549;42.162;24.726;2022-07-03T16:49:33;9.65;;;7.00;;
7017;SDS011;3549;42.162;24.726;2022-07-03T16:52:04;9.20;;;6.60;;
7017;SDS011;3549;42.162;24.726;2022-07-03T16:54:32;8.65;;;6.68;;
7017;SDS011;3549;42.162;24.726;2022-07-03T16:56:58;8.82;;;7.22;;
7017;SDS011;3549;42.162;24.726;2022-07-03T16:59:25;9.48;;;6.90;;